LOWS/SZG METAR and TAF weather

Enter ICAO airport designator
Station Type Date Time Source
LOWS METAR 2021/06/22 23:20 UTC NOAA

LOWS 222320Z AUTO 25005KT 9999 -SHRA //////CB FEW022 BKN024 19/18 Q1016


Station Type Date Time Source
LOWS Decoded METAR 2021/06/22 23:20 UTC NOAA

Salzburg-Flughafen, Austria (LOWS) 47-48N 013-00E 450M
Jun 22, 2021 - 07:20 PM EDT / 2021.06.22 2320 UTC
Wind: from the WSW (250 degrees) at 6 MPH (5 KT):0
Visibility: greater than 7 mile(s):0
Sky conditions: mostly cloudy
Weather: light rain showers; Cumulonimbus clouds observed
Temperature: 66 F (19 C)
Dew Point: 64 F (18 C)
Relative Humidity: 93%
Pressure (altimeter): 30.00 in. Hg (1016 hPa)
ob: LOWS 222320Z AUTO 25005KT 9999 -SHRA //////CB FEW022 BKN024 19/18 Q1016
cycle: 23

Station Type Date Time Source
LOWS TAF 2021/06/22 20:12 UTC NOAA

TAF TAF
AMD LOWS 222006Z 2220/2318 34009KT 9999 FEW040 BKN050 TX24/2315Z TN17/2303Z
TEMPO 2220/2302 SHRA FEW020CB BKN030 PROB30
TEMPO 2220/2224 30015G30KT 4000 +TSRA SCT030 SCT040CB BKN040 PROB40
TEMPO 2316/2318 30015G25KT 4500 TSRA SCT030CB BKN040

Example: see airport list